createdAt,value
2018-03-28T00:00:32.874Z,76.57
2018-03-28T00:01:32.890Z,76.77
2018-03-28T00:02:32.900Z,76.96
2018-03-28T00:03:32.933Z,76.96
2018-03-28T00:04:32.945Z,76.96
2018-03-28T00:05:32.956Z,76.67
2018-03-28T00:06:32.972Z,77.15
2018-03-28T00:07:32.993Z,77.15
2018-03-28T00:08:33.009Z,77.15
2018-03-28T00:09:33.049Z,76.77
2018-03-28T00:10:33.108Z,77.06
2018-03-28T00:11:33.071Z,76.67
2018-03-28T00:12:33.081Z,76.86
2018-03-28T00:13:33.100Z,76.77
2018-03-28T00:14:32.925Z,77.06
2018-03-28T00:15:33.187Z,76.77
2018-03-28T00:16:33.208Z,76.86
2018-03-28T00:17:33.175Z,76.77
2018-03-28T00:18:33.192Z,77.82
2018-03-28T00:19:33.214Z,77.72
2018-03-28T00:20:33.236Z,77.91
2018-03-28T00:21:33.287Z,77.25
2018-03-28T00:22:33.268Z,77.34
2018-03-28T00:23:33.280Z,77.34
2018-03-28T00:24:33.303Z,76.96
2018-03-28T00:25:33.328Z,77.44
2018-03-28T00:26:33.338Z,77.44
2018-03-28T00:27:33.421Z,76.77
2018-03-28T00:28:33.421Z,77.15
2018-03-28T00:29:33.390Z,77.25
2018-03-28T00:30:33.410Z,77.53
2018-03-28T00:31:33.433Z,77.82
2018-03-28T00:32:33.446Z,77.72
2018-03-28T00:33:33.578Z,77.82
2018-03-28T00:34:33.489Z,77.91
2018-03-28T00:35:33.501Z,77.62
2018-03-28T00:36:33.517Z,78.30
2018-03-28T00:37:33.535Z,78.44
2018-03-28T00:38:33.553Z,78.64
2018-03-28T00:39:33.616Z,78.73
2018-03-28T00:40:33.593Z,79.15
2018-03-28T00:41:33.609Z,78.58
2018-03-28T00:42:33.635Z,78.73
2018-03-28T00:43:33.648Z,78.77
2018-03-28T00:44:33.666Z,78.73
2018-03-28T00:45:33.726Z,78.25
2018-03-28T00:46:33.757Z,78.77
2018-03-28T00:47:33.517Z,79.02
2018-03-28T00:48:33.735Z,78.92
2018-03-28T00:49:33.754Z,78.92
2018-03-28T00:50:33.768Z,78.54
2018-03-28T00:51:33.798Z,78.73
2018-03-28T00:52:33.856Z,79.21
2018-03-28T00:53:33.825Z,79.11
2018-03-28T00:54:33.850Z,79.68
2018-03-28T00:55:33.860Z,79.88
2018-03-28T00:56:33.878Z,79.59
2018-03-28T00:57:33.984Z,79.30
2018-03-28T00:58:33.993Z,79.49
2018-03-28T00:59:33.978Z,79.78
2018-03-28T01:00:33.980Z,79.68
2018-03-28T01:01:33.978Z,79.30
2018-03-28T01:02:34.042Z,79.11
2018-03-28T01:03:34.067Z,78.92
2018-03-28T01:04:34.085Z,79.21
2018-03-28T01:05:34.041Z,78.92
2018-03-28T01:06:34.058Z,79.78
2018-03-28T01:07:34.085Z,79.21
2018-03-28T01:08:34.099Z,79.40
2018-03-28T01:09:34.116Z,79.11
2018-03-28T01:10:34.149Z,79.11
2018-03-28T01:11:34.149Z,78.73
2018-03-28T01:12:34.176Z,78.73
2018-03-28T01:13:34.196Z,78.73
2018-03-28T01:14:34.206Z,78.64
2018-03-28T01:15:34.227Z,78.92
2018-03-28T01:16:34.294Z,78.54
2018-03-28T01:17:34.271Z,78.16
2018-03-28T01:18:34.289Z,78.44
2018-03-28T01:19:34.316Z,77.11
2018-03-28T01:20:34.163Z,76.92
2018-03-28T01:21:34.334Z,76.44
2018-03-28T01:22:34.401Z,77.20
2018-03-28T01:23:34.385Z,78.50
2018-03-28T01:24:34.394Z,78.44
2018-03-28T01:25:34.406Z,77.69
2018-03-28T01:26:34.425Z,78.83
2018-03-28T01:27:34.455Z,78.59
2018-03-28T01:28:34.462Z,78.25
2018-03-28T01:29:34.478Z,79.11
2018-03-28T01:30:34.498Z,78.64
2018-03-28T01:31:34.516Z,78.54
2018-03-28T01:32:34.534Z,77.83
2018-03-28T01:33:34.551Z,78.22
2018-03-28T01:34:34.624Z,78.25
2018-03-28T01:35:34.586Z,77.87
2018-03-28T01:36:34.606Z,77.83
2018-03-28T01:37:34.635Z,76.79
2018-03-28T01:38:34.692Z,77.93
2018-03-28T01:39:34.661Z,78.98
2018-03-28T01:40:34.732Z,78.59
2018-03-28T01:41:34.705Z,78.78
2018-03-28T01:42:34.726Z,78.50
2018-03-28T01:43:34.742Z,79.17
2018-03-28T01:44:34.754Z,79.74
2018-03-28T01:45:34.781Z,79.74
2018-03-28T01:46:34.840Z,80.31
2018-03-28T01:47:34.816Z,79.36
2018-03-28T01:48:34.833Z,80.31
2018-03-28T01:49:34.842Z,80.31
2018-03-28T01:50:34.866Z,80.50
2018-03-28T01:51:34.936Z,80.22
2018-03-28T01:52:34.949Z,80.50
2018-03-28T01:53:34.716Z,80.50
2018-03-28T01:54:34.944Z,80.22
2018-03-28T01:55:34.753Z,81.07
2018-03-28T01:56:34.982Z,80.79
2018-03-28T01:57:35.000Z,81.07
2018-03-28T01:58:35.011Z,81.46
2018-03-28T01:59:35.027Z,80.50
2018-03-28T02:00:35.051Z,81.07
2018-03-28T02:01:35.072Z,80.98
2018-03-28T02:02:35.082Z,81.07
2018-03-28T02:03:35.099Z,80.69
2018-03-28T02:04:35.117Z,80.98
2018-03-28T02:05:35.133Z,80.98
2018-03-28T02:06:35.163Z,80.69
2018-03-28T02:07:35.173Z,80.31
2018-03-28T02:08:35.187Z,79.64
2018-03-28T02:09:35.206Z,78.88
2018-03-28T02:10:35.238Z,78.78
2018-03-28T02:11:35.245Z,77.74
2018-03-28T02:12:35.283Z,77.17
2018-03-28T02:13:35.327Z,79.93
2018-03-28T02:14:35.301Z,81.17
2018-03-28T02:15:35.317Z,78.78
2018-03-28T02:16:35.395Z,79.07
2018-03-28T02:17:35.367Z,80.31
2018-03-28T02:18:35.371Z,80.31
2018-03-28T02:19:35.420Z,79.64
2018-03-28T02:20:35.413Z,81.36
2018-03-28T02:21:35.427Z,79.07
2018-03-28T02:22:35.494Z,78.50
2018-03-28T02:23:35.470Z,79.17
2018-03-28T02:24:35.486Z,79.93
2018-03-28T02:25:35.578Z,78.78
2018-03-28T02:26:35.523Z,77.36
2018-03-28T02:27:35.533Z,77.45
2018-03-28T02:28:35.399Z,76.75
2018-03-28T02:29:35.568Z,78.85
2018-03-28T02:30:35.587Z,80.18
2018-03-28T02:31:35.657Z,79.41
2018-03-28T02:32:35.620Z,82.27
2018-03-28T02:33:35.641Z,81.60
2018-03-28T02:34:35.711Z,82.75
2018-03-28T02:35:35.677Z,82.75
2018-03-28T02:36:35.703Z,83.89
2018-03-28T02:37:35.711Z,83.80
2018-03-28T02:38:35.733Z,83.41
2018-03-28T02:39:35.749Z,83.13
2018-03-28T02:40:35.820Z,82.18
2018-03-28T02:41:35.783Z,82.08
2018-03-28T02:42:35.804Z,82.75
2018-03-28T02:43:35.832Z,82.27
2018-03-28T02:44:35.836Z,82.27
2018-03-28T02:45:35.855Z,81.98
2018-03-28T02:46:35.926Z,82.93
2018-03-28T02:47:35.908Z,83.13
2018-03-28T02:48:35.910Z,82.65
2018-03-28T02:49:35.931Z,82.46
2018-03-28T02:50:35.957Z,82.18
2018-03-28T02:51:35.966Z,81.98
2018-03-28T02:52:36.042Z,81.70
2018-03-28T02:53:35.999Z,81.60
2018-03-28T02:54:36.018Z,81.98
2018-03-28T02:55:36.034Z,82.08
2018-03-28T02:56:36.057Z,82.37
2018-03-28T02:57:36.074Z,81.98
2018-03-28T02:58:36.141Z,82.27
2018-03-28T02:59:36.119Z,82.18
2018-03-28T03:00:36.151Z,82.65
2018-03-28T03:01:35.944Z,82.42
2018-03-28T03:02:36.169Z,82.61
2018-03-28T03:03:36.188Z,82.32
2018-03-28T03:04:36.207Z,82.37
2018-03-28T03:05:36.214Z,82.08
2018-03-28T03:06:36.249Z,81.79
2018-03-28T03:07:36.250Z,80.36
2018-03-28T03:08:36.264Z,81.41
2018-03-28T03:09:36.294Z,80.94
2018-03-28T03:10:36.354Z,80.18
2018-03-28T03:11:36.318Z,78.04
2018-03-28T03:12:36.386Z,78.99
2018-03-28T03:13:36.353Z,80.42
2018-03-28T03:14:36.370Z,80.75
2018-03-28T03:15:36.391Z,80.65
2018-03-28T03:16:36.456Z,80.80
2018-03-28T03:17:36.425Z,80.04
2018-03-28T03:18:36.487Z,80.27
2018-03-28T03:19:36.460Z,81.60
2018-03-28T03:20:36.486Z,81.51
2018-03-28T03:21:36.504Z,81.03
2018-03-28T03:22:36.562Z,81.03
2018-03-28T03:23:36.542Z,80.55
2018-03-28T03:24:36.617Z,79.80
2018-03-28T03:25:36.573Z,79.89
2018-03-28T03:26:36.584Z,80.18
2018-03-28T03:27:36.603Z,79.99
2018-03-28T03:28:36.622Z,79.70
2018-03-28T03:29:36.638Z,79.47
2018-03-28T03:30:36.723Z,80.94
2018-03-28T03:31:36.674Z,80.84
2018-03-28T03:32:36.693Z,80.04
2018-03-28T03:33:36.708Z,81.09
2018-03-28T03:34:36.576Z,80.71
2018-03-28T03:35:36.752Z,81.56
2018-03-28T03:36:36.569Z,80.80
2018-03-28T03:37:36.777Z,81.76
2018-03-28T03:38:36.801Z,82.51
2018-03-28T03:39:36.814Z,82.80
2018-03-28T03:40:36.894Z,81.95
2018-03-28T03:41:36.851Z,81.95
2018-03-28T03:42:36.910Z,80.90
2018-03-28T03:43:36.885Z,80.42
2018-03-28T03:44:36.905Z,79.94
2018-03-28T03:45:36.920Z,81.66
2018-03-28T03:46:36.999Z,82.04
2018-03-28T03:47:36.957Z,82.70
2018-03-28T03:48:37.016Z,81.76
2018-03-28T03:49:36.991Z,82.61
2018-03-28T03:50:37.009Z,82.90
2018-03-28T03:51:37.037Z,81.56
2018-03-28T03:52:37.097Z,81.76
2018-03-28T03:53:37.061Z,81.56
2018-03-28T03:54:37.123Z,81.76
2018-03-28T03:55:37.108Z,81.95
2018-03-28T03:56:37.132Z,82.90
2018-03-28T03:57:37.132Z,82.51
2018-03-28T03:58:37.204Z,81.95
2018-03-28T03:59:37.187Z,83.28
2018-03-28T04:00:37.268Z,83.75
2018-03-28T04:01:37.213Z,82.70
2018-03-28T04:02:37.230Z,83.56
2018-03-28T04:03:37.242Z,83.94
2018-03-28T04:04:37.304Z,84.42
2018-03-28T04:05:37.283Z,84.70
2018-03-28T04:06:37.299Z,84.89
2018-03-28T04:07:37.105Z,84.70
2018-03-28T04:08:37.323Z,83.94
2018-03-28T04:09:37.138Z,84.04
2018-03-28T04:10:37.413Z,84.33
2018-03-28T04:11:37.393Z,83.65
2018-03-28T04:12:37.409Z,84.80
2018-03-28T04:13:37.424Z,84.80
2018-03-28T04:14:37.437Z,84.80
2018-03-28T04:15:37.446Z,84.99
2018-03-28T04:16:37.469Z,85.08
2018-03-28T04:17:37.511Z,85.75
2018-03-28T04:18:37.497Z,85.75
2018-03-28T04:19:37.519Z,85.75
2018-03-28T04:20:37.536Z,85.47
2018-03-28T04:21:37.551Z,85.75
2018-03-28T04:22:37.567Z,85.85
2018-03-28T04:23:37.595Z,85.47
2018-03-28T04:24:37.601Z,85.37
2018-03-28T04:25:37.629Z,85.56
2018-03-28T04:26:37.637Z,86.32
2018-03-28T04:27:37.654Z,86.70
2018-03-28T04:28:37.722Z,86.61
2018-03-28T04:29:37.692Z,86.51
2018-03-28T04:30:37.710Z,86.04
2018-03-28T04:31:37.722Z,86.22
2018-03-28T04:32:37.737Z,85.94
2018-03-28T04:33:37.767Z,85.94
2018-03-28T04:34:37.922Z,86.22
2018-03-28T04:35:37.793Z,86.22
2018-03-28T04:36:37.845Z,86.13
2018-03-28T04:37:37.825Z,86.61
2018-03-28T04:38:37.846Z,87.37
2018-03-28T04:39:37.865Z,87.18
2018-03-28T04:40:37.992Z,87.18
2018-03-28T04:41:37.894Z,87.27
2018-03-28T04:42:37.711Z,86.80
2018-03-28T04:43:37.929Z,86.90
2018-03-28T04:44:37.949Z,87.18
2018-03-28T04:45:37.965Z,87.18
2018-03-28T04:46:38.032Z,87.27
2018-03-28T04:47:38.000Z,87.85
2018-03-28T04:48:38.015Z,88.60
2018-03-28T04:49:38.035Z,88.51
2018-03-28T04:50:38.050Z,88.04
2018-03-28T04:51:38.069Z,88.23
2018-03-28T04:52:38.179Z,88.70
2018-03-28T04:53:38.109Z,88.79
2018-03-28T04:54:38.121Z,88.60
2018-03-28T04:55:38.139Z,89.65
2018-03-28T04:56:38.156Z,89.84
2018-03-28T04:57:38.170Z,89.84
2018-03-28T04:58:38.192Z,90.61
2018-03-28T04:59:38.208Z,90.70
2018-03-28T05:00:38.221Z,90.22
2018-03-28T05:01:38.252Z,90.51
2018-03-28T05:02:38.258Z,89.84
2018-03-28T05:03:38.331Z,89.65
2018-03-28T05:04:38.345Z,89.65
2018-03-28T05:05:38.309Z,89.47
2018-03-28T05:06:38.324Z,90.47
2018-03-28T05:07:38.344Z,90.37
2018-03-28T05:08:38.371Z,90.75
2018-03-28T05:09:38.380Z,90.84
2018-03-28T05:10:38.407Z,90.84
2018-03-28T05:11:38.423Z,91.42
2018-03-28T05:12:38.431Z,91.51
2018-03-28T05:13:38.447Z,92.18
2018-03-28T05:14:38.494Z,92.36
2018-03-28T05:15:38.295Z,92.56
2018-03-28T05:16:38.555Z,92.46
2018-03-28T05:17:38.514Z,92.75
2018-03-28T05:18:38.535Z,92.36
2018-03-28T05:19:38.548Z,92.46
2018-03-28T05:20:38.625Z,93.23
2018-03-28T05:21:38.593Z,93.04
2018-03-28T05:22:38.687Z,93.23
2018-03-28T05:23:38.616Z,92.84
2018-03-28T05:24:38.642Z,93.04
2018-03-28T05:25:38.652Z,92.94
2018-03-28T05:26:38.668Z,92.75
2018-03-28T05:27:38.683Z,93.23
2018-03-28T05:28:38.713Z,93.13
2018-03-28T05:29:38.718Z,93.70
2018-03-28T05:30:38.740Z,93.41
2018-03-28T05:31:38.752Z,93.13
2018-03-28T05:32:38.817Z,92.65
2018-03-28T05:33:38.792Z,92.56
2018-03-28T05:34:38.812Z,92.65
2018-03-28T05:35:38.820Z,91.89
2018-03-28T05:36:38.846Z,92.08
2018-03-28T05:37:38.898Z,91.99
2018-03-28T05:38:38.870Z,92.94
2018-03-28T05:39:38.889Z,92.84
2018-03-28T05:40:38.952Z,93.41
2018-03-28T05:41:38.919Z,93.04
2018-03-28T05:42:38.940Z,93.13
2018-03-28T05:43:38.953Z,93.89
2018-03-28T05:44:38.984Z,93.60
2018-03-28T05:45:38.987Z,93.23
2018-03-28T05:46:39.063Z,93.04
2018-03-28T05:47:39.022Z,92.94
2018-03-28T05:48:38.845Z,93.89
2018-03-28T05:54:39.192Z,92.36
2018-03-28T05:55:39.165Z,92.65
2018-03-28T05:58:39.210Z,91.56
2018-03-28T05:59:39.225Z,91.75
2018-03-28T06:00:39.295Z,91.65
2018-03-28T06:01:39.329Z,91.61
2018-03-28T06:02:39.279Z,92.08
2018-03-28T06:03:39.291Z,91.42
2018-03-28T06:04:39.316Z,92.36
2018-03-28T06:05:39.323Z,91.61
2018-03-28T06:06:39.395Z,92.46
2018-03-28T06:07:39.361Z,92.84
2018-03-28T06:08:39.374Z,92.65
2018-03-28T06:09:39.391Z,93.23
2018-03-28T06:10:39.409Z,92.46
2018-03-28T06:11:39.428Z,92.36
2018-03-28T06:12:39.493Z,91.99
2018-03-28T06:13:39.461Z,92.46
2018-03-28T06:14:39.477Z,92.65
2018-03-28T06:15:39.496Z,92.27
2018-03-28T06:16:39.514Z,92.22
2018-03-28T06:17:39.539Z,91.56
2018-03-28T06:18:39.635Z,91.84
2018-03-28T06:19:39.576Z,91.61
2018-03-28T06:20:39.587Z,91.99
2018-03-28T06:21:39.393Z,91.70
2018-03-28T06:22:39.613Z,91.80
2018-03-28T06:23:39.628Z,91.61
2018-03-28T06:24:39.734Z,91.32
2018-03-28T06:25:39.666Z,91.22
2018-03-28T06:26:39.683Z,91.32
2018-03-28T06:27:39.715Z,91.80
2018-03-28T06:28:39.715Z,91.32
2018-03-28T06:29:39.731Z,91.46
2018-03-28T06:30:39.902Z,91.56
2018-03-28T06:31:39.774Z,91.22
2018-03-28T06:32:39.782Z,91.37
2018-03-28T06:33:39.800Z,92.32
2018-03-28T06:34:39.829Z,92.65
2018-03-28T06:35:39.846Z,92.22
2018-03-28T06:36:39.900Z,91.94
2018-03-28T06:37:39.894Z,91.75
2018-03-28T06:38:39.886Z,91.37
2018-03-28T06:39:39.901Z,91.27
2018-03-28T06:40:39.918Z,91.17
2018-03-28T06:41:40.027Z,90.89
2018-03-28T06:42:40.014Z,90.80
2018-03-28T06:43:39.971Z,90.99
2018-03-28T06:44:39.985Z,90.80
2018-03-28T06:45:40.001Z,90.99
2018-03-28T06:46:40.021Z,91.08
2018-03-28T06:47:40.115Z,90.89
2018-03-28T06:48:40.103Z,90.89
2018-03-28T06:49:40.074Z,90.80
2018-03-28T06:50:40.091Z,90.32
2018-03-28T06:51:40.102Z,90.22
2018-03-28T06:52:40.130Z,90.42
2018-03-28T06:53:40.166Z,90.42
2018-03-28T06:54:40.204Z,90.22
2018-03-28T06:55:40.180Z,90.13
2018-03-28T06:56:40.199Z,90.03
2018-03-28T06:57:40.210Z,90.61
2018-03-28T06:58:40.221Z,89.75
2018-03-28T06:59:40.271Z,90.32
2018-03-28T07:00:40.317Z,90.22
2018-03-28T07:01:40.283Z,90.13
2018-03-28T07:02:40.294Z,90.13
2018-03-28T07:03:40.314Z,90.22
2018-03-28T07:04:40.325Z,90.51
2018-03-28T07:05:40.344Z,89.75
2018-03-28T07:06:40.410Z,89.84
2018-03-28T07:07:40.386Z,89.94
2018-03-28T07:08:40.402Z,90.03
2018-03-28T07:09:40.424Z,90.08
2018-03-28T07:10:40.433Z,89.98
2018-03-28T07:11:40.444Z,89.89
2018-03-28T07:12:40.523Z,89.89
2018-03-28T07:13:40.493Z,89.51
2018-03-28T07:14:40.506Z,90.08
2018-03-28T07:15:40.521Z,89.98
2018-03-28T07:16:40.529Z,89.89
2018-03-28T07:17:40.548Z,89.51
2018-03-28T07:18:40.617Z,88.56
2018-03-28T07:19:40.585Z,88.84
2018-03-28T07:20:40.622Z,88.75
2018-03-28T07:21:40.617Z,88.93
2018-03-28T07:22:40.638Z,88.84
2018-03-28T07:23:40.664Z,88.84
2018-03-28T07:24:40.719Z,88.56
2018-03-28T07:25:40.484Z,88.12
2018-03-28T07:26:40.711Z,85.54
2018-03-28T07:27:40.725Z,82.34
2018-03-28T07:28:40.741Z,80.66
2018-03-28T07:29:40.759Z,76.69
2018-03-28T07:30:40.828Z,75.30
2018-03-28T07:31:40.797Z,75.62
2018-03-28T07:32:40.822Z,72.47
2018-03-28T07:33:40.829Z,70.30
2018-03-28T07:34:40.847Z,68.13
2018-03-28T07:35:40.874Z,69.19
2018-03-28T07:36:40.933Z,66.89
2018-03-28T07:37:40.902Z,65.78
2018-03-28T07:38:40.921Z,64.82
2018-03-28T07:39:40.940Z,64.92
2018-03-28T07:40:40.959Z,64.34
2018-03-28T07:41:41.046Z,63.70
2018-03-28T07:42:41.051Z,62.93
2018-03-28T07:43:41.025Z,61.69
2018-03-28T07:44:41.036Z,61.43
2018-03-28T07:45:41.066Z,62.07
2018-03-28T07:46:41.073Z,62.36
2018-03-28T07:47:41.095Z,61.24
2018-03-28T07:48:41.162Z,62.46
2018-03-28T07:49:41.140Z,61.72
2018-03-28T07:50:41.159Z,60.09
2018-03-28T07:51:41.172Z,60.28
2018-03-28T07:52:41.192Z,59.74
2018-03-28T07:53:41.210Z,58.81
2018-03-28T07:54:41.284Z,57.65
2018-03-28T07:55:41.254Z,56.79
2018-03-28T07:56:41.066Z,58.44
2018-03-28T07:57:41.300Z,61.53
2018-03-28T07:58:41.322Z,61.63
2018-03-28T07:59:41.331Z,60.76
2018-03-28T08:00:41.413Z,59.93
2018-03-28T08:01:41.371Z,58.23
2018-03-28T08:02:41.402Z,57.75
2018-03-28T08:03:41.416Z,56.60
2018-03-28T08:04:41.444Z,58.39
2018-03-28T08:05:41.464Z,57.08
2018-03-28T08:06:41.535Z,57.43
2018-03-28T08:07:41.495Z,57.08
2018-03-28T08:08:41.516Z,58.39
2018-03-28T08:09:41.538Z,58.81
2018-03-28T08:10:41.587Z,57.56
2018-03-28T08:11:41.578Z,57.37
2018-03-28T08:12:41.652Z,57.53
2018-03-28T08:13:41.619Z,58.97
2018-03-28T08:14:41.639Z,60.19
2018-03-28T08:15:41.673Z,60.64
2018-03-28T08:16:41.707Z,60.31
2018-03-28T08:17:41.702Z,59.42
2018-03-28T08:18:41.778Z,60.09
2018-03-28T08:19:41.746Z,61.34
2018-03-28T08:20:41.773Z,60.19
2018-03-28T08:21:41.786Z,59.80
2018-03-28T08:22:41.842Z,58.97
2018-03-28T08:23:41.830Z,61.63
2018-03-28T08:24:41.853Z,60.09
2018-03-28T08:25:41.914Z,60.86
2018-03-28T08:26:41.900Z,61.08
2018-03-28T08:27:41.912Z,60.03
2018-03-28T08:28:41.976Z,61.40
2018-03-28T08:29:41.751Z,61.21
2018-03-28T08:30:41.974Z,60.28
2018-03-28T08:31:41.994Z,59.55
2018-03-28T08:32:42.014Z,60.12
2018-03-28T08:33:42.037Z,58.97
2018-03-28T08:34:42.068Z,58.04
2018-03-28T08:35:42.078Z,56.89
2018-03-28T08:36:42.100Z,57.40
2018-03-28T08:37:42.121Z,55.67
2018-03-28T08:38:42.139Z,57.11
2018-03-28T08:39:42.164Z,57.40
2018-03-28T08:40:42.181Z,56.66
2018-03-28T08:41:42.204Z,55.89
2018-03-28T08:42:42.381Z,54.64
2018-03-28T08:43:42.246Z,54.55
2018-03-28T08:44:42.272Z,54.80
2018-03-28T08:45:42.286Z,54.35
2018-03-28T08:46:42.308Z,54.25
2018-03-28T08:47:42.330Z,55.19
2018-03-28T08:48:42.352Z,55.32
2018-03-28T08:49:42.382Z,54.64
2018-03-28T08:50:42.394Z,54.96
2018-03-28T08:51:42.451Z,53.42
2018-03-28T08:52:42.444Z,54.67
2018-03-28T08:53:42.458Z,52.17
2018-03-28T08:54:42.495Z,53.30
2018-03-28T08:55:42.512Z,56.19
2018-03-28T08:56:42.526Z,59.13
2018-03-28T08:57:42.545Z,60.28
2018-03-28T08:58:42.567Z,60.03
2018-03-28T08:59:42.593Z,57.65
2018-03-28T09:00:42.611Z,58.26
2018-03-28T09:01:42.640Z,55.91
2018-03-28T09:02:42.464Z,55.34
2018-03-28T09:03:42.678Z,54.28
2018-03-28T09:04:42.697Z,54.50
2018-03-28T09:05:42.720Z,52.97
2018-03-28T09:06:42.752Z,52.29
2018-03-28T09:07:42.763Z,52.65
2018-03-28T09:08:42.783Z,54.35
2018-03-28T09:09:42.815Z,53.01
2018-03-28T09:10:42.835Z,54.13
2018-03-28T09:11:42.861Z,55.22
2018-03-28T09:12:42.881Z,55.10
2018-03-28T09:13:42.902Z,55.26
2018-03-28T09:14:42.929Z,57.28
2018-03-28T09:15:42.939Z,57.95
2018-03-28T09:16:42.962Z,55.86
2018-03-28T09:17:42.983Z,55.16
2018-03-28T09:18:43.067Z,55.69
2018-03-28T09:19:43.028Z,54.55
2018-03-28T09:20:43.079Z,53.70
2018-03-28T09:21:43.075Z,53.32
2018-03-28T09:22:43.101Z,53.66
2018-03-28T09:23:43.118Z,55.93
2018-03-28T09:24:43.246Z,56.82
2018-03-28T09:25:43.170Z,55.69
2018-03-28T09:26:43.180Z,54.38
2018-03-28T09:27:43.207Z,53.52
2018-03-28T09:28:43.226Z,53.39
2018-03-28T09:29:43.247Z,52.62
2018-03-28T09:30:43.271Z,53.03
2018-03-28T09:31:43.290Z,52.00
2018-03-28T09:32:43.315Z,51.26
2018-03-28T09:34:43.357Z,48.40
2018-03-28T09:35:43.176Z,47.80
2018-03-28T09:37:40.854Z,48.79
2018-03-28T09:38:40.876Z,48.88
2018-03-28T09:39:40.913Z,49.84
2018-03-28T09:40:40.720Z,49.96
2018-03-28T09:41:40.747Z,48.81
2018-03-28T09:42:40.762Z,49.10
2018-03-28T09:43:41.043Z,47.46
2018-03-28T09:44:41.066Z,46.04
2018-03-28T09:45:41.032Z,47.19
2018-03-28T09:46:41.068Z,46.25
2018-03-28T09:47:41.097Z,45.03
2018-03-28T09:48:40.901Z,45.79
2018-03-28T09:49:40.986Z,44.06
2018-03-28T09:50:40.958Z,43.29
2018-03-28T09:51:40.979Z,45.21
2018-03-28T09:52:40.991Z,43.94
2018-03-28T09:53:41.019Z,45.07
2018-03-28T09:54:41.038Z,46.62
2018-03-28T09:55:41.316Z,46.14
2018-03-28T09:56:41.289Z,48.61
2018-03-28T09:57:41.311Z,47.56
2018-03-28T09:58:41.334Z,48.69
2018-03-28T09:59:41.165Z,48.52
2018-03-28T10:00:41.380Z,47.61
2018-03-28T10:01:41.455Z,49.69
2018-03-28T10:02:41.427Z,51.35
2018-03-28T10:03:41.260Z,49.43
2018-03-28T10:04:41.475Z,48.95
2018-03-28T10:05:41.496Z,50.51
2018-03-28T10:06:41.581Z,49.00
2018-03-28T10:07:41.543Z,48.43
2018-03-28T10:08:41.565Z,47.39
2018-03-28T10:10:41.622Z,46.73
2018-03-28T10:11:41.640Z,45.87
2018-03-28T10:12:41.657Z,45.41
2018-03-28T10:13:41.683Z,44.81
2018-03-28T10:14:41.704Z,46.37
2018-03-28T10:15:41.727Z,43.67
2018-03-28T10:16:41.769Z,43.12
2018-03-28T10:17:41.777Z,41.96
2018-03-28T10:18:41.801Z,42.85
2018-03-28T10:19:41.827Z,43.26
2018-03-28T10:20:41.854Z,42.46
2018-03-28T10:21:41.877Z,42.56
2018-03-28T10:22:41.964Z,43.12
2018-03-28T10:23:41.916Z,43.77
2018-03-28T10:24:41.997Z,42.23
2018-03-28T10:25:41.967Z,44.45
2018-03-28T10:26:41.993Z,44.08
2018-03-28T10:27:42.011Z,44.93
2018-03-28T10:28:42.141Z,44.62
2018-03-28T10:29:42.058Z,45.41
2018-03-28T10:30:42.138Z,44.93
2018-03-28T10:31:42.106Z,44.85
2018-03-28T10:32:42.130Z,43.17
2018-03-28T10:33:42.156Z,43.77
2018-03-28T10:34:42.218Z,44.81
2018-03-28T10:35:42.211Z,46.11
2018-03-28T10:36:42.078Z,47.00
2018-03-28T10:37:42.247Z,46.98
2018-03-28T10:38:42.272Z,47.85
2018-03-28T10:39:42.295Z,45.29
2018-03-28T10:40:42.319Z,45.97
2018-03-28T10:41:42.353Z,45.36
2018-03-28T10:42:42.429Z,45.84
2018-03-28T10:43:42.391Z,45.58
2018-03-28T10:44:42.414Z,43.67
2018-03-28T10:45:42.441Z,44.78
2018-03-28T10:46:42.472Z,42.89
2018-03-28T10:47:42.486Z,42.14
2018-03-28T10:48:42.560Z,39.82
2018-03-28T10:49:42.532Z,39.04
2018-03-28T10:50:42.557Z,39.84
2018-03-28T10:51:42.626Z,41.48
2018-03-28T10:52:42.606Z,39.45
2018-03-28T10:53:42.632Z,39.36
2018-03-28T10:54:42.702Z,39.94
2018-03-28T10:55:42.683Z,39.95
2018-03-28T10:56:42.703Z,37.92
2018-03-28T10:57:42.726Z,37.98
2018-03-28T10:58:42.752Z,39.53
2018-03-28T10:59:42.777Z,39.03
2018-03-28T11:00:42.851Z,40.28
2018-03-28T11:01:42.826Z,39.80
2018-03-28T11:02:42.850Z,40.84
2018-03-28T11:03:42.872Z,42.82
2018-03-28T11:04:42.904Z,40.77
2018-03-28T11:05:42.926Z,41.03
2018-03-28T11:06:42.952Z,42.43
2018-03-28T11:07:42.972Z,38.85
2018-03-28T11:08:43.004Z,39.09
2018-03-28T11:09:42.864Z,40.70
2018-03-28T11:10:43.046Z,41.96
2018-03-28T11:11:43.083Z,42.32
2018-03-28T11:12:43.105Z,43.00
2018-03-28T11:13:43.122Z,44.01
2018-03-28T11:14:43.145Z,44.03
2018-03-28T11:15:43.171Z,41.94
2018-03-28T11:16:43.196Z,38.93
2018-03-28T11:17:43.227Z,41.36
2018-03-28T11:18:43.296Z,38.18
2018-03-28T11:19:43.278Z,38.93
2018-03-28T11:20:43.304Z,42.15
2018-03-28T11:21:43.319Z,42.83
2018-03-28T11:22:43.353Z,42.63
2018-03-28T11:23:43.377Z,42.42
2018-03-28T11:24:43.440Z,43.10
2018-03-28T11:25:43.414Z,43.67
2018-03-28T11:26:43.504Z,43.94
2018-03-28T11:27:43.463Z,43.94
2018-03-28T11:28:43.498Z,43.67
2018-03-28T11:29:43.511Z,42.80
2018-03-28T11:30:43.590Z,43.29
2018-03-28T11:31:43.573Z,43.87
2018-03-28T11:32:43.588Z,43.02
2018-03-28T11:33:43.658Z,42.83
2018-03-28T11:34:43.642Z,42.71
2018-03-28T11:35:43.664Z,43.19
2018-03-28T11:36:43.684Z,43.87
2018-03-28T11:37:43.709Z,42.63
2018-03-28T11:38:43.734Z,42.36
2018-03-28T11:39:43.837Z,40.65
2018-03-28T11:40:43.577Z,40.63
2018-03-28T11:41:43.810Z,40.94
2018-03-28T11:42:43.835Z,41.23
2018-03-28T11:43:43.852Z,42.75
2018-03-28T11:44:43.875Z,40.07
2018-03-28T11:45:43.930Z,40.77
2018-03-28T11:46:43.923Z,42.04
2018-03-28T11:47:43.949Z,41.09
2018-03-28T11:48:43.979Z,39.84
2018-03-28T11:49:43.997Z,39.72
2018-03-28T11:50:44.018Z,39.90
2018-03-28T11:51:44.058Z,40.47
2018-03-28T11:52:44.070Z,40.86
2018-03-28T11:53:44.091Z,40.72
2018-03-28T11:54:44.117Z,41.30
2018-03-28T11:55:44.139Z,41.78
2018-03-28T11:56:44.165Z,41.30
2018-03-28T11:57:44.193Z,42.18
2018-03-28T11:58:44.224Z,41.44
2018-03-28T11:59:44.251Z,40.65
2018-03-28T12:00:44.260Z,41.23
2018-03-28T12:01:44.294Z,41.33
2018-03-28T12:02:44.314Z,40.26
2018-03-28T12:03:44.334Z,40.38
2018-03-28T12:04:44.421Z,39.69
2018-03-28T12:05:44.386Z,41.35
2018-03-28T12:06:44.460Z,41.35
2018-03-28T12:07:44.431Z,41.27
2018-03-28T12:08:44.471Z,41.46
2018-03-28T12:09:44.488Z,40.47
2018-03-28T12:10:44.512Z,41.02
2018-03-28T12:11:44.536Z,42.77
2018-03-28T12:12:44.605Z,42.10
2018-03-28T12:13:44.592Z,41.60
2018-03-28T12:14:44.601Z,42.83
2018-03-28T12:15:44.635Z,44.08
2018-03-28T12:16:44.661Z,42.85
2018-03-28T12:17:44.773Z,42.54
2018-03-28T12:18:44.708Z,42.61
2018-03-28T12:19:44.739Z,43.70
2018-03-28T12:20:44.759Z,42.97
2018-03-28T12:21:44.774Z,42.02
2018-03-28T12:22:44.808Z,40.78
2018-03-28T12:23:44.841Z,40.57
2018-03-28T12:24:44.845Z,40.77
2018-03-28T12:25:44.879Z,41.61
2018-03-28T12:26:44.897Z,39.43
2018-03-28T12:27:44.919Z,40.09
2018-03-28T12:28:44.942Z,43.27
2018-03-28T12:29:44.972Z,45.94
2018-03-28T12:30:45.001Z,45.97
2018-03-28T12:31:45.016Z,45.24
2018-03-28T12:32:45.039Z,43.98
2018-03-28T12:33:45.065Z,44.42
2018-03-28T12:34:45.095Z,44.35
2018-03-28T12:35:45.110Z,45.68
2018-03-28T12:36:45.137Z,46.35
2018-03-28T12:37:45.159Z,45.87
2018-03-28T12:38:45.187Z,46.62
2018-03-28T12:39:45.204Z,46.93
2018-03-28T12:40:45.230Z,46.95
2018-03-28T12:41:45.262Z,45.94
2018-03-28T12:42:45.351Z,44.60
2018-03-28T12:43:45.303Z,41.81
2018-03-28T12:44:45.323Z,42.41
2018-03-28T12:45:45.351Z,41.23
2018-03-28T12:46:45.402Z,41.42
2018-03-28T12:47:45.398Z,41.13
2018-03-28T12:48:45.471Z,42.58
2018-03-28T12:49:45.471Z,42.52
2018-03-28T12:50:45.480Z,38.95
2018-03-28T12:51:45.514Z,41.02
2018-03-28T12:52:45.545Z,41.98
2018-03-28T12:53:45.548Z,42.08
2018-03-28T12:54:45.639Z,43.75
2018-03-28T12:55:45.608Z,45.84
2018-03-28T12:56:45.613Z,46.62
2018-03-28T12:57:45.676Z,46.06
2018-03-28T12:58:45.662Z,45.77
2018-03-28T12:59:45.710Z,47.12
2018-03-28T13:00:45.757Z,46.11
2018-03-28T13:01:45.815Z,44.51
2018-03-28T13:02:45.755Z,42.56